KPSK Airport Information

Runway Information
Runway 06 Length 6201 ft width 150 ft
Elevation 2105 ft Threshold 0 ft Heading 52
Runway 24 Length 6201 ft Width 150 ft
Elevation 2073 ft Threshold 0 ft Heading 232
Airport Frequencies
Type A/D Name ROANOKE AP Frequency 126 MHZ
Type AWOS Name AWOS 3 Frequency 127.375 MHZ
Type CLD Name CLNC DEL Frequency 121.7 MHZ
Type RDO Name LEESBURG R Frequency 122.3 MHZ
Type UNIC Name CTAF/UNICO Frequency 122.7 MHZ
Airport Navaids
Airport Weather Information & NOTAM
ADDS - METARS form results

(0536 UTC 22 January 2021)
Data provider http://aviationweather.gov/metar/data/
 
METAR text: KPSK 220535Z AUTO 26008G18KT 10SM CLR 02/M03 A2984 RMK AO2 T00221026
Conditions at: KPSK (DUBLIN/NEW RIV , VA, US) observed 0535 UTC 22 January 2021
Temperature: 2.2°C (36°F)
Dewpoint: -2.6°C (27°F) [RH = 70%]
Pressure (altimeter): 29.84 inches Hg (1010.6 mb)
Winds: from the W (260 degrees) at 9 MPH (8 knots; 4.1 m/s)
gusting to 21 MPH (18 knots; 9.3 m/s)
Visibility: 10 or more miles (16+ km)
Ceiling: at least 12,000 feet AGL
Clouds: sky clear below 12,000 feet AGL
Weather: automated observation with no human augmentation;
there may or may not be significant weather present at this time

METAR text: KPSK 220515Z AUTO 25008KT 10SM CLR 02/M03 A2983 RMK AO2 T00181027
Conditions at: KPSK (DUBLIN/NEW RIV , VA, US) observed 0515 UTC 22 January 2021
Temperature: 1.8°C (35°F)
Dewpoint: -2.7°C (27°F) [RH = 72%]
Pressure (altimeter): 29.83 inches Hg (1010.2 mb)
Winds: from the WSW (250 degrees) at 9 MPH (8 knots; 4.1 m/s)
Visibility: 10 or more miles (16+ km)
Ceiling: at least 12,000 feet AGL
Clouds: sky clear below 12,000 feet AGL
Weather: automated observation with no human augmentation;
there may or may not be significant weather present at this time

METAR text: KPSK 220455Z AUTO 24008KT 10SM CLR 02/M03 A2983 RMK AO2 T00151028
Conditions at: KPSK (DUBLIN/NEW RIV , VA, US) observed 0455 UTC 22 January 2021
Temperature: 1.5°C (35°F)
Dewpoint: -2.8°C (27°F) [RH = 73%]
Pressure (altimeter): 29.83 inches Hg (1010.2 mb)
Winds: from the WSW (240 degrees) at 9 MPH (8 knots; 4.1 m/s)
Visibility: 10 or more miles (16+ km)
Ceiling: at least 12,000 feet AGL
Clouds: sky clear below 12,000 feet AGL
Weather: automated observation with no human augmentation;
there may or may not be significant weather present at this time